De Doornakkers, Netherlands
Current Conditions -  °F | °C
As of 11:49 AM on Friday 19 Dec 2014 (Local Time) from EHEH Reporting Station
Moderate Rain Moderate Rain  
Wind Chill: 50°   Ceiling: 1900
Heat Index: 50°   Visibility: 3mi
Dew Point: 48°   Wind: 16mph
Humidity: 94%   Direction: 310°NW
Pressure: 29.83"   Gusts: NA
Location:  51.44°N, 5.51°E
Report Text: EHEH 191049Z AUTO 31014KT 5000 RA FEW006 SCT014 FEW015TCU BKN019 10/09 Q1010 GRN 31015G25KT 4500 DZRA FEW007 SCT009 OVC011 BECMG FEW008 BKN015
Loading
Personal Weather Stations






























Interactive Weather Map New forecast layout! Learn more

10-Day Weather Forecast

Advertisements
Track Severe Weather on mobile